createdAt,value
2018-09-14T00:01:04.502Z,14.22
2018-09-14T00:03:34.522Z,14.26
2018-09-14T00:06:06.867Z,14.26
2018-09-14T00:08:37.628Z,14.23
2018-09-14T00:11:07.028Z,14.17
2018-09-14T00:13:36.388Z,14.17
2018-09-14T00:16:05.746Z,14.19
2018-09-14T00:18:35.502Z,14.23
2018-09-14T00:21:06.211Z,14.25
2018-09-14T00:23:38.058Z,14.19
2018-09-14T00:28:44.630Z,14.20
2018-09-14T00:31:16.119Z,14.20
2018-09-14T00:33:45.567Z,14.22
2018-09-14T00:36:14.984Z,14.23
2018-09-14T00:38:45.049Z,14.22
2018-09-14T00:41:16.234Z,14.19
2018-09-14T00:43:45.679Z,14.20
2018-09-14T00:46:15.031Z,14.19
2018-09-14T00:48:44.883Z,14.13
2018-09-14T00:51:14.810Z,14.18
2018-09-14T00:53:44.175Z,14.20
2018-09-14T00:56:15.639Z,14.22
2018-09-14T00:58:44.994Z,14.23
2018-09-14T01:01:19.430Z,14.22
2018-09-14T01:03:48.851Z,14.22
2018-09-14T01:06:18.512Z,14.23
2018-09-14T01:08:47.932Z,14.21
2018-09-14T01:11:17.332Z,14.21
2018-09-14T01:13:46.705Z,14.23
2018-09-14T01:16:17.668Z,14.21
2018-09-14T01:18:46.970Z,14.21
2018-09-14T01:21:16.383Z,14.20
2018-09-14T01:23:49.272Z,14.22
2018-09-14T01:26:18.627Z,14.17
2018-09-14T01:28:48.898Z,14.21
2018-09-14T01:31:20.807Z,14.15
2018-09-14T01:33:51.566Z,14.18
2018-09-14T01:36:20.995Z,14.17
2018-09-14T01:38:53.310Z,14.15
2018-09-14T01:41:22.606Z,14.17
2018-09-14T01:43:51.935Z,14.13
2018-09-14T01:46:21.272Z,14.16
2018-09-14T01:48:50.946Z,14.18
2018-09-14T01:51:20.283Z,14.20
2018-09-14T01:53:49.645Z,14.19
2018-09-14T01:56:20.171Z,14.15
2018-09-14T01:58:49.496Z,14.16
2018-09-14T02:01:18.830Z,14.07
2018-09-14T02:03:48.182Z,14.10
2018-09-14T02:06:18.195Z,14.04
2018-09-14T02:08:47.511Z,13.94
2018-09-14T02:11:17.884Z,13.95
2018-09-14T02:13:51.945Z,13.96
2018-09-14T02:16:21.345Z,13.99
2018-09-14T02:18:51.467Z,14.00
2018-09-14T02:21:20.805Z,13.95
2018-09-14T02:23:50.099Z,13.87
2018-09-14T02:26:20.655Z,13.88
2018-09-14T02:28:49.971Z,13.94
2018-09-14T02:31:19.668Z,13.95
2018-09-14T02:33:48.996Z,14.00
2018-09-14T02:36:18.291Z,14.01
2018-09-14T02:38:48.179Z,14.00
2018-09-14T02:41:17.527Z,14.01
2018-09-14T02:43:47.100Z,14.03
2018-09-14T02:46:17.587Z,14.03
2018-09-14T02:48:47.879Z,13.98
2018-09-14T02:51:17.212Z,13.98
2018-09-14T02:53:47.515Z,13.99
2018-09-14T02:56:16.892Z,13.95
2018-09-14T02:58:47.473Z,13.88
2018-09-14T03:01:17.283Z,13.92
2018-09-14T03:03:47.214Z,13.92
2018-09-14T03:06:16.628Z,13.95
2018-09-14T03:08:46.472Z,13.93
2018-09-14T03:11:15.795Z,13.95
2018-09-14T03:13:45.789Z,13.91
2018-09-14T03:16:15.201Z,13.88
2018-09-14T03:18:45.438Z,13.83
2018-09-14T03:21:15.705Z,13.87
2018-09-14T03:23:45.314Z,13.87
2018-09-14T03:26:15.038Z,13.86
2018-09-14T03:28:45.225Z,13.84
2018-09-14T03:31:16.152Z,13.83
2018-09-14T03:33:45.984Z,13.83
2018-09-14T03:36:15.992Z,13.87
2018-09-14T03:38:45.347Z,13.84
2018-09-14T03:41:14.720Z,13.87
2018-09-14T03:43:45.283Z,13.83
2018-09-14T03:46:15.162Z,13.86
2018-09-14T03:48:44.477Z,13.89
2018-09-14T03:51:13.981Z,13.88
2018-09-14T03:53:43.954Z,13.90
2018-09-14T03:56:13.305Z,13.89
2018-09-14T03:58:42.674Z,13.89
2018-09-14T04:01:13.993Z,13.89
2018-09-14T04:03:43.438Z,13.91
2018-09-14T04:06:12.746Z,13.90
2018-09-14T04:08:42.862Z,13.91
2018-09-14T04:11:13.781Z,13.92
2018-09-14T04:13:43.267Z,13.90
2018-09-14T04:16:12.594Z,13.87
2018-09-14T04:18:41.941Z,13.73
2018-09-14T04:21:11.246Z,13.78
2018-09-14T04:23:40.647Z,13.67
2018-09-14T04:26:10.414Z,13.64
2018-09-14T04:28:39.812Z,13.68
2018-09-14T04:31:09.114Z,13.71
2018-09-14T04:33:40.491Z,13.73
2018-09-14T04:36:10.178Z,13.78
2018-09-14T04:38:40.672Z,13.74
2018-09-14T04:41:10.047Z,13.78
2018-09-14T04:43:40.313Z,13.81
2018-09-14T04:46:10.483Z,13.82
2018-09-14T04:48:41.427Z,13.81
2018-09-14T04:51:11.208Z,13.71
2018-09-14T04:53:41.821Z,13.67
2018-09-14T04:56:12.884Z,13.70
2018-09-14T04:58:42.246Z,13.73
2018-09-14T05:01:12.162Z,13.75
2018-09-14T05:03:41.517Z,13.77
2018-09-14T05:06:10.902Z,13.77
2018-09-14T05:08:40.287Z,13.75
2018-09-14T05:11:09.637Z,13.78
2018-09-14T05:13:39.138Z,13.75
2018-09-14T05:16:08.923Z,13.73
2018-09-14T05:18:38.999Z,13.74
2018-09-14T05:21:08.857Z,13.77
2018-09-14T05:23:38.418Z,13.74
2018-09-14T05:26:11.466Z,13.74
2018-09-14T05:28:41.604Z,13.67
2018-09-14T05:31:10.962Z,13.60
2018-09-14T05:33:44.617Z,13.65
2018-09-14T05:36:15.548Z,13.69
2018-09-14T05:38:46.546Z,13.67
2018-09-14T05:41:17.726Z,13.66
2018-09-14T05:43:47.122Z,13.61
2018-09-14T05:46:17.033Z,13.65
2018-09-14T05:48:47.138Z,13.61
2018-09-14T05:51:16.546Z,13.62
2018-09-14T05:53:53.814Z,13.61
2018-09-14T05:56:23.887Z,13.64
2018-09-14T05:58:53.261Z,13.58
2018-09-14T06:01:24.107Z,13.43
2018-09-14T06:03:53.797Z,13.45
2018-09-14T06:06:23.170Z,13.42
2018-09-14T06:08:55.372Z,13.49
2018-09-14T06:11:25.260Z,13.38
2018-09-14T06:13:56.460Z,13.36
2018-09-14T06:16:25.855Z,13.37
2018-09-14T06:18:56.961Z,13.27
2018-09-14T06:21:27.704Z,13.28
2018-09-14T06:23:57.931Z,13.32
2018-09-14T06:26:27.322Z,13.26
2018-09-14T06:28:57.459Z,13.28
2018-09-14T06:31:26.824Z,13.28
2018-09-14T06:33:56.118Z,13.33
2018-09-14T06:36:31.079Z,13.37
2018-09-14T06:39:00.403Z,13.38
2018-09-14T06:41:29.741Z,13.38
2018-09-14T06:43:59.109Z,13.40
2018-09-14T06:46:28.480Z,13.41
2018-09-14T06:48:58.283Z,13.30
2018-09-14T06:51:29.387Z,13.39
2018-09-14T06:53:58.709Z,13.42
2018-09-14T06:56:28.031Z,13.41
2018-09-14T06:58:58.468Z,13.46
2018-09-14T07:01:28.547Z,13.45
2018-09-14T07:03:58.695Z,13.45
2018-09-14T07:06:28.828Z,13.46
2018-09-14T07:08:59.819Z,13.51
2018-09-14T07:11:32.318Z,13.50
2018-09-14T07:14:33.269Z,13.45
2018-09-14T07:17:04.541Z,13.51
2018-09-14T07:19:35.101Z,13.57
2018-09-14T07:22:04.457Z,13.55
2018-09-14T07:24:34.997Z,13.48
2018-09-14T07:27:05.235Z,13.44
2018-09-14T07:29:36.483Z,13.47
2018-09-14T07:32:06.231Z,13.46
2018-09-14T07:34:37.222Z,13.54
2018-09-14T07:37:07.248Z,13.62
2018-09-14T07:39:37.286Z,13.65
2018-09-14T07:42:08.357Z,13.68
2018-09-14T07:44:38.670Z,13.68
2018-09-14T07:47:10.011Z,13.74
2018-09-14T07:49:43.354Z,13.78
2018-09-14T07:52:14.408Z,13.79
2018-09-14T07:54:44.816Z,13.84
2018-09-14T07:57:16.213Z,13.87
2018-09-14T07:59:47.720Z,13.92
2018-09-14T08:02:19.603Z,13.95
2018-09-14T08:04:50.430Z,13.97
2018-09-14T08:07:21.674Z,14.01
2018-09-14T08:09:52.991Z,14.01
2018-09-14T08:12:22.838Z,13.98
2018-09-14T08:14:52.138Z,13.94
2018-09-14T08:17:22.435Z,13.97
2018-09-14T08:19:53.018Z,13.95
2018-09-14T08:22:22.628Z,13.95
2018-09-14T08:24:53.446Z,13.94
2018-09-14T08:27:24.386Z,13.90
2018-09-14T08:29:54.346Z,13.94
2018-09-14T08:32:24.493Z,13.96
2018-09-14T08:34:56.605Z,13.91
2018-09-14T08:37:26.261Z,13.89
2018-09-14T08:39:58.163Z,13.85
2018-09-14T08:42:30.934Z,13.79
2018-09-14T08:45:01.734Z,13.84
2018-09-14T08:47:33.186Z,13.88
2018-09-14T08:50:03.110Z,13.88
2018-09-14T08:52:33.378Z,13.91
2018-09-14T08:55:04.910Z,13.88
2018-09-14T08:57:36.051Z,13.97
2018-09-14T09:00:05.422Z,13.97
2018-09-14T09:02:34.874Z,14.03
2018-09-14T09:05:04.586Z,14.01
2018-09-14T09:07:34.348Z,14.04
2018-09-14T09:10:03.644Z,14.08
2018-09-14T09:12:35.539Z,14.10
2018-09-14T09:15:05.944Z,14.18
2018-09-14T09:17:35.790Z,14.17
2018-09-14T09:20:05.530Z,14.20
2018-09-14T09:22:35.572Z,14.24
2018-09-14T09:25:05.206Z,14.29
2018-09-14T09:27:49.048Z,14.31
2018-09-14T09:32:59.048Z,14.45
2018-09-14T09:35:29.355Z,14.42
2018-09-14T09:38:01.075Z,14.46
2018-09-14T09:40:30.492Z,14.58
2018-09-14T09:43:00.639Z,14.58
2018-09-14T09:45:32.349Z,14.60
2018-09-14T09:48:02.179Z,14.70
2018-09-14T09:50:31.494Z,14.81
2018-09-14T09:53:00.802Z,14.80
2018-09-14T09:55:30.115Z,14.78
2018-09-14T09:57:59.485Z,14.78
2018-09-14T10:00:34.368Z,14.86
2018-09-14T10:03:10.680Z,14.98
2018-09-14T10:05:46.496Z,15.07
2018-09-14T10:08:15.774Z,15.14
2018-09-14T10:10:45.214Z,15.12
2018-09-14T10:13:18.564Z,15.20
2018-09-14T10:15:52.158Z,15.29
2018-09-14T10:18:21.466Z,15.51
2018-09-14T10:20:51.815Z,15.43
2018-09-14T10:23:22.428Z,15.48
2018-09-14T10:25:51.739Z,15.55
2018-09-14T10:28:22.919Z,15.65
2018-09-14T10:30:53.421Z,15.67
2018-09-14T10:33:24.771Z,15.68
2018-09-14T10:35:55.834Z,15.72
2018-09-14T10:38:27.513Z,15.81
2018-09-14T10:41:02.448Z,15.93
2018-09-14T10:43:35.991Z,15.96
2018-09-14T10:46:07.580Z,15.96
2018-09-14T10:48:37.620Z,16.04
2018-09-14T10:51:08.397Z,16.17
2018-09-14T10:53:40.085Z,16.23
2018-09-14T10:56:09.555Z,16.36
2018-09-14T10:58:43.803Z,16.44
2018-09-14T11:01:17.821Z,16.22
2018-09-14T11:03:47.205Z,16.13
2018-09-14T11:06:17.418Z,16.12
2018-09-14T11:08:48.352Z,16.27
2018-09-14T11:11:21.554Z,16.32
2018-09-14T11:13:51.927Z,16.34
2018-09-14T11:16:22.303Z,16.36
2018-09-14T11:18:56.410Z,16.45
2018-09-14T11:21:26.402Z,16.53
2018-09-14T11:24:02.569Z,16.63
2018-09-14T11:26:32.491Z,16.73
2018-09-14T11:29:01.857Z,16.73
2018-09-14T11:31:32.228Z,16.75
2018-09-14T11:34:02.259Z,16.92
2018-09-14T11:36:31.587Z,16.99
2018-09-14T11:39:02.287Z,17.18
2018-09-14T11:41:31.669Z,17.24
2018-09-14T11:44:03.916Z,17.32
2018-09-14T11:46:37.035Z,17.46
2018-09-14T11:49:06.421Z,17.40
2018-09-14T11:51:36.023Z,17.43
2018-09-14T11:54:09.046Z,17.60
2018-09-14T11:56:39.053Z,17.64
2018-09-14T11:59:08.411Z,17.56
2018-09-14T12:01:37.737Z,17.39
2018-09-14T12:04:11.295Z,17.48
2018-09-14T12:06:40.688Z,17.44
2018-09-14T12:09:40.845Z,17.42
2018-09-14T12:12:12.109Z,17.52
2018-09-14T12:14:43.199Z,17.59
2018-09-14T12:17:14.165Z,17.71
2018-09-14T12:19:47.275Z,17.51
2018-09-14T12:22:18.023Z,17.52
2018-09-14T12:24:48.510Z,17.67
2018-09-14T12:27:29.685Z,17.71
2018-09-14T12:30:00.118Z,17.79
2018-09-14T12:32:29.861Z,17.72
2018-09-14T12:34:59.335Z,17.75
2018-09-14T12:37:28.993Z,17.78
2018-09-14T12:40:08.491Z,17.73
2018-09-14T12:42:39.907Z,17.71
2018-09-14T12:45:10.704Z,17.90
2018-09-14T12:47:40.907Z,17.99
2018-09-14T12:50:11.507Z,18.05
2018-09-14T12:52:41.584Z,18.13
2018-09-14T12:55:11.526Z,18.20
2018-09-14T12:57:41.189Z,18.26
2018-09-14T13:00:10.531Z,18.25
2018-09-14T13:02:40.342Z,18.22
2018-09-14T13:05:10.942Z,18.28
2018-09-14T13:07:40.491Z,18.31
2018-09-14T13:10:12.630Z,18.34
2018-09-14T13:12:42.617Z,18.30
2018-09-14T13:15:11.946Z,18.19
2018-09-14T13:17:41.255Z,18.08
2018-09-14T13:20:13.451Z,17.93
2018-09-14T13:22:42.732Z,17.90
2018-09-14T13:25:12.096Z,17.84
2018-09-14T13:27:43.858Z,17.84
2018-09-14T13:30:14.895Z,17.93
2018-09-14T13:32:46.558Z,17.98
2018-09-14T13:35:17.010Z,18.07
2018-09-14T13:37:46.335Z,18.09
2018-09-14T13:40:15.875Z,18.13
2018-09-14T13:42:46.599Z,18.22
2018-09-14T13:45:18.410Z,18.32
2018-09-14T13:47:48.902Z,18.41
2018-09-14T13:50:19.926Z,18.56
2018-09-14T13:52:49.469Z,18.63
2018-09-14T13:55:21.391Z,18.58
2018-09-14T13:57:55.623Z,18.56
2018-09-14T14:00:25.683Z,18.63
2018-09-14T14:02:55.228Z,18.64
2018-09-14T14:05:25.695Z,18.66
2018-09-14T14:07:59.435Z,18.63
2018-09-14T14:10:28.834Z,18.59
2018-09-14T14:12:59.066Z,18.62
2018-09-14T14:15:31.868Z,18.75
2018-09-14T14:18:02.263Z,18.75
2018-09-14T14:20:34.635Z,18.79
2018-09-14T14:23:04.578Z,18.84
2018-09-14T14:25:35.155Z,18.89
2018-09-14T14:28:05.480Z,18.78
2018-09-14T14:30:38.196Z,18.84
2018-09-14T14:33:08.440Z,18.85
2018-09-14T14:35:39.819Z,18.88
2018-09-14T14:38:09.484Z,18.78
2018-09-14T14:40:39.443Z,18.72
2018-09-14T14:43:08.778Z,18.74
2018-09-14T14:45:38.368Z,18.75
2018-09-14T14:48:07.688Z,18.70
2018-09-14T14:50:39.884Z,18.65
2018-09-14T14:53:09.299Z,18.60
2018-09-14T14:55:39.471Z,18.55
2018-09-14T14:58:09.723Z,18.58
2018-09-14T15:00:42.168Z,18.48
2018-09-14T15:03:11.446Z,18.40
2018-09-14T15:05:42.156Z,18.38
2018-09-14T15:08:13.266Z,18.32
2018-09-14T15:10:43.291Z,18.26
2018-09-14T15:13:12.655Z,18.26
2018-09-14T15:18:17.711Z,18.24
2018-09-14T15:20:47.548Z,18.23
2018-09-14T15:23:18.596Z,18.21
2018-09-14T15:25:49.635Z,18.21
2018-09-14T15:28:21.334Z,18.20
2018-09-14T15:30:50.672Z,18.24
2018-09-14T15:33:23.877Z,18.27
2018-09-14T15:35:53.202Z,18.31
2018-09-14T15:38:23.694Z,18.35
2018-09-14T15:40:53.413Z,18.37
2018-09-14T15:43:25.544Z,18.38
2018-09-14T15:45:55.503Z,18.42
2018-09-14T15:48:27.351Z,18.38
2018-09-14T15:50:56.691Z,18.32
2018-09-14T15:53:29.695Z,18.34
2018-09-14T15:55:59.035Z,18.31
2018-09-14T15:58:28.461Z,18.26
2018-09-14T16:01:00.971Z,18.22
2018-09-14T16:03:30.286Z,18.21
2018-09-14T16:06:00.907Z,18.21
2018-09-14T16:08:30.839Z,18.18
2018-09-14T16:11:00.183Z,18.12
2018-09-14T16:13:31.457Z,18.03
2018-09-14T16:16:00.767Z,17.94
2018-09-14T16:18:31.039Z,17.84
2018-09-14T16:21:06.275Z,17.77
2018-09-14T16:23:36.606Z,17.68
2018-09-14T16:26:06.322Z,17.62
2018-09-14T16:28:35.616Z,17.58
2018-09-14T16:31:06.571Z,17.49
2018-09-14T16:33:37.447Z,17.38
2018-09-14T16:36:07.098Z,17.29
2018-09-14T16:38:36.400Z,17.18
2018-09-14T16:41:05.740Z,17.12
2018-09-14T16:43:41.532Z,16.97
2018-09-14T16:46:11.826Z,16.80
2018-09-14T16:48:44.175Z,16.68
2018-09-14T16:51:16.474Z,16.58
2018-09-14T16:53:47.723Z,16.47
2018-09-14T16:56:17.777Z,16.39
2018-09-14T16:58:49.054Z,16.25
2018-09-14T17:01:21.706Z,16.18
2018-09-14T17:03:52.678Z,16.10
2018-09-14T17:06:24.188Z,16.02
2018-09-14T17:08:54.207Z,15.92
2018-09-14T17:12:26.396Z,15.83
2018-09-14T17:14:57.370Z,15.74
2018-09-14T17:17:27.059Z,15.69
2018-09-14T17:19:57.362Z,15.66
2018-09-14T17:22:27.328Z,15.58
2018-09-14T17:24:59.616Z,15.53
2018-09-14T17:27:29.351Z,15.44
2018-09-14T17:30:00.475Z,15.40
2018-09-14T17:32:30.428Z,15.29
2018-09-14T17:35:01.336Z,15.18
2018-09-14T17:37:32.161Z,15.06
2018-09-14T17:40:03.359Z,15.09
2018-09-14T17:42:34.358Z,15.02
2018-09-14T17:45:07.229Z,15.03
2018-09-14T17:48:01.946Z,15.03
2018-09-14T17:50:32.358Z,15.00
2018-09-14T17:53:08.167Z,14.97
2018-09-14T17:55:38.449Z,14.93
2018-09-14T17:58:10.275Z,14.90
2018-09-14T18:00:39.962Z,14.84
2018-09-14T18:03:10.798Z,14.80
2018-09-14T18:05:40.399Z,14.75
2018-09-14T18:08:13.823Z,14.70
2018-09-14T18:10:44.392Z,14.68
2018-09-14T18:13:19.407Z,14.64
2018-09-14T18:15:49.412Z,14.60
2018-09-14T18:18:22.628Z,14.63
2018-09-14T18:20:58.287Z,14.63
2018-09-14T18:23:28.626Z,14.62
2018-09-14T18:26:04.691Z,14.60
2018-09-14T18:28:34.109Z,14.58
2018-09-14T18:31:05.356Z,14.53
2018-09-14T18:33:43.051Z,14.46
2018-09-14T18:36:13.993Z,14.39
2018-09-14T18:38:48.082Z,14.30
2018-09-14T18:41:18.851Z,14.27
2018-09-14T18:43:48.479Z,14.29
2018-09-14T18:46:19.416Z,14.29
2018-09-14T18:48:51.529Z,14.28
2018-09-14T18:51:24.082Z,14.26
2018-09-14T18:54:00.520Z,14.21
2018-09-14T18:56:31.246Z,14.17
2018-09-14T18:59:05.622Z,14.13
2018-09-14T19:01:36.387Z,14.12
2018-09-14T19:04:12.372Z,14.15
2018-09-14T19:06:42.054Z,14.12
2018-09-14T19:09:19.799Z,14.09
2018-09-14T19:11:52.338Z,14.09
2018-09-14T19:14:21.751Z,14.07
2018-09-14T19:16:53.620Z,14.03
2018-09-14T19:19:30.692Z,14.00
2018-09-14T19:22:02.381Z,14.01
2018-09-14T19:24:36.757Z,13.99
2018-09-14T19:27:08.629Z,13.88
2018-09-14T19:29:39.923Z,13.87
2018-09-14T19:32:16.375Z,13.84
2018-09-14T19:34:50.354Z,13.84
2018-09-14T19:37:21.483Z,13.92
2018-09-14T19:39:54.822Z,13.99
2018-09-14T19:42:26.218Z,14.07
2018-09-14T19:44:56.767Z,14.19
2018-09-14T19:47:27.322Z,14.28
2018-09-14T19:49:56.932Z,14.34
2018-09-14T19:52:27.427Z,14.36
2018-09-14T19:54:58.402Z,14.42
2018-09-14T19:57:29.014Z,14.48
2018-09-14T20:00:00.638Z,14.52
2018-09-14T20:02:33.391Z,14.55
2018-09-14T20:05:05.408Z,14.61
2018-09-14T20:07:37.564Z,14.69
2018-09-14T20:10:08.194Z,14.78
2018-09-14T20:12:38.966Z,14.85
2018-09-14T20:15:10.610Z,14.91
2018-09-14T20:17:42.740Z,14.97
2018-09-14T20:20:16.856Z,15.00
2018-09-14T20:22:46.131Z,15.02
2018-09-14T20:25:15.926Z,15.04
2018-09-14T20:27:46.191Z,15.08
2018-09-14T20:30:18.012Z,15.12
2018-09-14T20:32:49.118Z,15.15
2018-09-14T20:35:22.613Z,15.16
2018-09-14T20:37:59.684Z,15.17
2018-09-14T20:40:30.995Z,15.22
2018-09-14T20:43:03.596Z,15.26
2018-09-14T20:45:33.232Z,15.29
2018-09-14T20:48:05.219Z,15.30
2018-09-14T20:50:36.335Z,15.32
2018-09-14T20:53:06.439Z,15.34
2018-09-14T20:55:37.020Z,15.39
2018-09-14T20:58:06.564Z,15.40
2018-09-14T21:00:36.492Z,15.39
2018-09-14T21:03:12.330Z,15.38
2018-09-14T21:05:42.853Z,15.36
2018-09-14T21:15:27.403Z,15.33
2018-09-14T21:18:37.268Z,15.33
2018-09-14T21:21:10.314Z,15.34
2018-09-14T21:23:40.061Z,15.36
2018-09-14T21:26:10.851Z,15.38
2018-09-14T21:28:40.655Z,15.40
2018-09-14T21:31:10.741Z,15.43
2018-09-14T21:33:40.755Z,15.46
2018-09-14T21:36:10.257Z,15.49
2018-09-14T21:38:45.492Z,15.51
2018-09-14T21:41:18.331Z,15.51
2018-09-14T21:43:55.292Z,15.55
2018-09-14T21:46:26.543Z,15.54
2018-09-14T21:48:59.192Z,15.52
2018-09-14T21:51:31.533Z,15.51
2018-09-14T21:54:01.476Z,15.47
2018-09-14T21:56:32.674Z,15.44
2018-09-14T21:59:03.282Z,15.42
2018-09-14T22:01:33.543Z,15.41
2018-09-14T22:04:05.358Z,15.41
2018-09-14T22:06:37.487Z,15.46
2018-09-14T22:09:11.888Z,15.45
2018-09-14T22:11:42.589Z,15.45
2018-09-14T22:14:28.111Z,15.49
2018-09-14T22:16:59.813Z,15.50
2018-09-14T22:19:30.408Z,15.48
2018-09-14T22:22:04.382Z,15.49
2018-09-14T22:24:33.874Z,15.48
2018-09-14T22:27:03.285Z,15.46
2018-09-14T22:29:33.875Z,15.43
2018-09-14T22:32:07.308Z,15.41
2018-09-14T22:34:36.663Z,15.36
2018-09-14T22:37:07.245Z,15.29
2018-09-14T22:39:37.738Z,15.25
2018-09-14T22:42:07.040Z,15.17
2018-09-14T22:44:36.384Z,15.12
2018-09-14T22:47:06.709Z,15.08
2018-09-14T22:49:36.004Z,15.02
2018-09-14T22:52:07.408Z,14.99
2018-09-14T22:54:36.787Z,14.90
2018-09-14T22:57:06.093Z,14.87
2018-09-14T22:59:35.403Z,14.84
2018-09-14T23:02:04.742Z,14.75
2018-09-14T23:04:34.261Z,14.66
2018-09-14T23:07:04.720Z,14.57
2018-09-14T23:09:35.718Z,14.48
2018-09-14T23:12:05.937Z,14.39
2018-09-14T23:14:35.573Z,14.32
2018-09-14T23:17:06.107Z,14.28
2018-09-14T23:19:37.010Z,14.27
2018-09-14T23:22:29.865Z,14.24
2018-09-14T23:25:11.271Z,14.21
2018-09-14T23:27:55.702Z,14.20
2018-09-14T23:30:42.374Z,14.17
2018-09-14T23:33:22.895Z,14.16
2018-09-14T23:35:52.216Z,14.10
2018-09-14T23:38:23.262Z,14.10
2018-09-14T23:40:53.562Z,14.05
2018-09-14T23:43:23.306Z,14.03
2018-09-14T23:45:53.915Z,14.02
2018-09-14T23:48:24.058Z,13.99
2018-09-14T23:50:53.872Z,13.97
2018-09-14T23:53:23.594Z,13.95
2018-09-14T23:55:53.738Z,13.95
2018-09-14T23:58:25.366Z,13.94
